Time;durP1;ratioP1;P1;durP2;ratioP2;P2;SDS_P1;SDS_P2;PMS_P1;PMS_P2;Temp;Humidity;BMP_temperature;BMP_pressure;BME280_temperature;BME280_humidity;BME280_pressure;Samples;Min_cycle;Max_cycle;Signal;HPM_P1;HPM_P2
2022/01/22 00:02:07;;;;;;;;;;;0.50;99.90;;;;;;5035583;28;19928;-69
2022/01/22 00:04:33;;;;;;;;;;;0.50;99.90;;;;;;5035482;28;19955;-69
2022/01/22 00:07:01;;;;;;;;;;;0.60;99.90;;;;;;5035276;28;20546;-69
2022/01/22 00:09:28;;;;;;;;;;;0.80;99.90;;;;;;5035550;28;20268;-69
2022/01/22 00:11:54;;;;;;;;;;;0.60;99.90;;;;;;5035223;28;19913;-72
2022/01/22 00:14:24;;;;;;;;;;;0.60;99.90;;;;;;5033561;28;19917;-69
2022/01/22 00:16:50;;;;;;;;;;;0.60;99.90;;;;;;5033957;28;19917;-68
2022/01/22 00:19:16;;;;;;;;;;;0.80;99.90;;;;;;5034115;28;19920;-69
2022/01/22 00:21:41;;;;;;;;;;;0.70;99.90;;;;;;5034013;28;19921;-69
2022/01/22 00:24:10;;;;;;;;;;;0.70;99.90;;;;;;5033870;28;19923;-69
2022/01/22 00:26:36;;;;;;;;;;;0.70;99.90;;;;;;5034979;28;19913;-69
2022/01/22 00:29:01;;;;;;;;;;;0.70;99.90;;;;;;5033814;28;19924;-69
2022/01/22 00:31:27;;;;;;;;;;;0.70;99.90;;;;;;5035020;28;19913;-69
2022/01/22 00:33:52;;;;;;;;;;;0.60;99.90;;;;;;5034753;28;19913;-69
2022/01/22 00:36:18;;;;;;;;;;;0.60;99.90;;;;;;5034862;28;19913;-68
2022/01/22 00:38:44;;;;;;;;;;;0.60;99.90;;;;;;5031894;28;19913;-68
2022/01/22 00:41:10;;;;;;;;;;;0.80;99.90;;;;;;5032537;28;19921;-68
2022/01/22 00:43:36;;;;;;;;;;;0.70;99.90;;;;;;5032505;28;19917;-68
2022/01/22 00:46:01;;;;;;;;;;;0.70;99.90;;;;;;5032778;28;20391;-69
2022/01/22 00:48:27;;;;;;;;;;;0.60;99.90;;;;;;5034560;28;19999;-69
2022/01/22 00:50:55;;;;;;;;;;;0.70;99.90;;;;;;5032755;28;19913;-68
2022/01/22 00:53:21;;;;;;;;;;;0.60;99.90;;;;;;5033545;28;20000;-68
2022/01/22 00:55:47;;;;;;;;;;;0.70;99.90;;;;;;5034392;28;19948;-69
2022/01/22 00:58:13;;;;;;;;;;;0.60;99.90;;;;;;5032988;28;20318;-68
2022/01/22 01:00:38;;;;;;;;;;;0.60;99.90;;;;;;5033075;28;19995;-68
2022/01/22 01:03:04;;;;;;;;;;;0.60;99.90;;;;;;5034038;28;19914;-68
2022/01/22 01:05:30;;;;;;;;;;;0.70;99.90;;;;;;5034173;28;20284;-68
2022/01/22 01:07:55;;;;;;;;;;;0.70;99.90;;;;;;5034320;28;19913;-68
2022/01/22 01:10:21;;;;;;;;;;;0.60;99.90;;;;;;5034351;28;20300;-68
2022/01/22 01:12:48;;;;;;;;;;;0.60;99.90;;;;;;5034197;28;19917;-68
2022/01/22 01:16:01;;;;;;;;;;;0.60;99.90;;;;;;5034487;28;19913;-69
2022/01/22 01:34:15;;;;;;;;;;;0.50;99.90;;;;;;5033811;28;19971;-70
2022/01/22 01:36:42;;;;;;;;;;;0.60;99.90;;;;;;5032574;28;20261;-69
2022/01/22 01:39:11;;;;;;;;;;;0.60;99.90;;;;;;5033822;28;20652;-69
2022/01/22 01:41:48;;;;;;;;;;;0.50;99.90;;;;;;5033650;28;19921;-70
2022/01/22 01:44:14;;;;;;;;;;;0.60;99.90;;;;;;5033755;28;20312;-70
2022/01/22 01:46:56;;;;;;;;;;;0.50;99.90;;;;;;5032440;28;20085;-69
2022/01/22 01:49:22;;;;;;;;;;;0.50;99.90;;;;;;5033728;28;20003;-69
2022/01/22 01:51:48;;;;;;;;;;;0.40;99.90;;;;;;5033434;28;19963;-69
2022/01/22 01:59:26;;;;;;;;;;;0.30;99.90;;;;;;5033559;28;19920;-69
2022/01/22 02:01:52;;;;;;;;;;;0.40;99.90;;;;;;5033257;28;19925;-69
2022/01/22 02:04:17;;;;;;;;;;;0.40;99.90;;;;;;5033624;28;19913;-69
2022/01/22 02:06:43;;;;;;;;;;;0.40;99.90;;;;;;5032071;28;20439;-69
2022/01/22 02:09:10;;;;;;;;;;;0.30;99.90;;;;;;5032004;28;20331;-70
2022/01/22 02:11:37;;;;;;;;;;;0.30;99.90;;;;;;5028977;28;19913;-70
2022/01/22 02:24:52;;;;;;;;;;;0.30;99.90;;;;;;5031998;28;19920;-70
2022/01/22 02:27:18;;;;;;;;;;;0.20;99.90;;;;;;5031919;28;20000;-70
2022/01/22 02:29:43;;;;;;;;;;;0.10;99.90;;;;;;5031703;28;19956;-70
2022/01/22 02:35:13;;;;;;;;;;;0.40;99.90;;;;;;5010199;28;19917;-70
2022/01/22 02:37:45;;;;;;;;;;;0.10;99.90;;;;;;5031835;28;19920;-69
2022/01/22 02:40:16;;;;;;;;;;;0.00;99.90;;;;;;5032986;28;19917;-69
2022/01/22 02:42:45;;;;;;;;;;;0.00;99.90;;;;;;5033317;28;20369;-69
2022/01/22 02:45:17;;;;;;;;;;;-0.10;99.90;;;;;;5033433;28;19952;-69
2022/01/22 02:47:43;;;;;;;;;;;-0.10;99.90;;;;;;5033364;28;19913;-69
2022/01/22 02:50:08;;;;;;;;;;;-0.10;99.90;;;;;;5033147;28;19913;-69
2022/01/22 02:52:34;;;;;;;;;;;0.10;99.90;;;;;;5031682;28;19917;-69
2022/01/22 02:55:00;;;;;;;;;;;0.10;99.90;;;;;;5032932;28;19939;-69
2022/01/22 02:57:26;;;;;;;;;;;0.10;99.90;;;;;;5032983;28;19917;-69
2022/01/22 02:59:52;;;;;;;;;;;0.10;99.90;;;;;;5032913;28;19917;-69
2022/01/22 03:02:19;;;;;;;;;;;0.30;99.90;;;;;;5031859;28;20280;-69
2022/01/22 03:04:45;;;;;;;;;;;0.10;99.90;;;;;;5032844;28;19917;-69
2022/01/22 03:07:10;;;;;;;;;;;0.20;99.90;;;;;;5032830;28;19943;-69
2022/01/22 03:09:44;;;;;;;;;;;0.40;99.90;;;;;;5032768;28;20395;-69
2022/01/22 03:22:22;;;;;;;;;;;0.40;99.90;;;;;;5036512;28;19929;-68
2022/01/22 03:27:33;;;;;;;;;;;0.30;99.90;;;;;;5035788;28;20028;-68
2022/01/22 03:29:59;;;;;;;;;;;0.40;99.90;;;;;;5035802;28;20312;-69
2022/01/22 03:32:35;;;;;;;;;;;0.40;99.90;;;;;;5035924;28;19939;-69
2022/01/22 03:35:10;;;;;;;;;;;0.40;99.90;;;;;;5036013;28;19921;-68
2022/01/22 03:37:37;;;;;;;;;;;0.40;99.90;;;;;;5036098;28;19949;-68
2022/01/22 03:40:04;;;;;;;;;;;0.40;99.90;;;;;;5036009;28;19913;-68
2022/01/22 03:42:29;;;;;;;;;;;0.30;99.90;;;;;;5034642;28;20296;-69
2022/01/22 03:44:55;;;;;;;;;;;0.40;99.90;;;;;;5035766;28;19921;-69
2022/01/22 03:47:21;;;;;;;;;;;0.40;99.90;;;;;;5034260;28;19959;-69
2022/01/22 03:49:46;;;;;;;;;;;0.40;99.90;;;;;;5034976;28;20004;-69
2022/01/22 03:52:12;;;;;;;;;;;0.30;99.90;;;;;;5035489;28;19917;-69
2022/01/22 03:54:38;;;;;;;;;;;0.30;99.90;;;;;;5035335;28;19927;-68
2022/01/22 03:57:04;;;;;;;;;;;0.30;99.90;;;;;;5034487;28;20287;-68
2022/01/22 03:59:30;;;;;;;;;;;0.20;99.90;;;;;;5034261;28;20011;-69
2022/01/22 04:04:34;;;;;;;;;;;0.20;99.90;;;;;;5035483;28;19917;-69
2022/01/22 04:09:33;;;;;;;;;;;0.10;99.90;;;;;;5035598;28;20002;-68
2022/01/22 04:12:00;;;;;;;;;;;0.30;99.90;;;;;;5034449;28;19913;-68
2022/01/22 04:14:31;;;;;;;;;;;0.10;99.90;;;;;;5034999;28;19947;-69
2022/01/22 04:24:55;;;;;;;;;;;0.20;99.90;;;;;;5035192;28;19924;-68
2022/01/22 04:27:27;;;;;;;;;;;0.20;99.90;;;;;;5032918;28;19975;-68
2022/01/22 04:29:54;;;;;;;;;;;0.40;99.90;;;;;;5033617;28;19952;-68
2022/01/22 04:32:20;;;;;;;;;;;0.20;99.90;;;;;;5034069;28;20016;-68
2022/01/22 04:34:46;;;;;;;;;;;0.20;99.90;;;;;;5034847;28;20008;-69
2022/01/22 04:37:12;;;;;;;;;;;0.30;99.90;;;;;;5035032;28;20364;-69
2022/01/22 04:39:37;;;;;;;;;;;0.30;99.90;;;;;;5035060;28;19919;-68
2022/01/22 04:42:03;;;;;;;;;;;0.30;99.90;;;;;;5034733;28;20288;-68
2022/01/22 04:44:34;;;;;;;;;;;0.30;99.90;;;;;;5034886;28;19944;-69
2022/01/22 04:55:00;;;;;;;;;;;0.40;99.90;;;;;;5034636;28;19913;-69
2022/01/22 04:57:27;;;;;;;;;;;0.40;99.90;;;;;;5034637;28;20368;-69
2022/01/22 04:59:52;;;;;;;;;;;0.40;99.90;;;;;;5034344;28;19917;-68
2022/01/22 05:02:18;;;;;;;;;;;0.30;99.90;;;;;;5033336;28;19924;-68
2022/01/22 05:04:43;;;;;;;;;;;0.40;99.90;;;;;;5032908;28;19921;-68
2022/01/22 05:07:10;;;;;;;;;;;0.30;99.90;;;;;;5034459;28;19921;-68
2022/01/22 05:09:35;;;;;;;;;;;0.40;99.90;;;;;;5034393;28;19946;-68
2022/01/22 05:12:01;;;;;;;;;;;0.40;99.90;;;;;;5033087;28;20440;-68
2022/01/22 05:14:27;;;;;;;;;;;0.40;99.90;;;;;;5032850;28;20008;-68
2022/01/22 05:16:55;;;;;;;;;;;0.40;99.90;;;;;;5032842;28;19913;-69
2022/01/22 05:19:29;;;;;;;;;;;0.50;99.90;;;;;;5034386;28;19923;-68
2022/01/22 05:22:00;;;;;;;;;;;0.40;99.90;;;;;;5033713;28;20027;-69
2022/01/22 05:24:32;;;;;;;;;;;0.40;99.90;;;;;;5033809;28;19917;-69
2022/01/22 05:32:22;;;;;;;;;;;0.40;99.90;;;;;;5033672;28;19920;-69
2022/01/22 05:37:32;;;;;;;;;;;0.50;99.90;;;;;;5013548;28;19928;-69
2022/01/22 05:39:58;;;;;;;;;;;0.50;99.90;;;;;;5013875;28;20324;-68
2022/01/22 05:42:23;;;;;;;;;;;0.50;99.90;;;;;;5014070;28;19918;-69
2022/01/22 05:44:49;;;;;;;;;;;0.50;99.90;;;;;;5014164;28;20016;-69
2022/01/22 05:47:20;;;;;;;;;;;0.50;99.90;;;;;;5013886;28;19913;-68
2022/01/22 05:49:46;;;;;;;;;;;0.50;99.90;;;;;;5013873;28;19918;-68
2022/01/22 05:52:14;;;;;;;;;;;0.50;99.90;;;;;;5029021;28;19921;-69
2022/01/22 05:59:59;;;;;;;;;;;0.50;99.90;;;;;;5013432;28;19920;-69
2022/01/22 06:02:24;;;;;;;;;;;0.50;99.90;;;;;;5013582;28;19922;-69
2022/01/22 06:04:50;;;;;;;;;;;0.50;99.90;;;;;;5012259;28;19925;-69
2022/01/22 06:07:16;;;;;;;;;;;0.50;99.90;;;;;;5013830;28;19996;-68
2022/01/22 06:10:02;;;;;;;;;;;0.50;99.90;;;;;;5013361;28;20012;-69
2022/01/22 06:12:42;;;;;;;;;;;0.60;99.90;;;;;;5013198;28;20365;-69
2022/01/22 06:15:08;;;;;;;;;;;0.50;99.90;;;;;;5011890;28;19921;-69
2022/01/22 06:17:34;;;;;;;;;;;0.50;99.90;;;;;;5013182;28;19966;-69
2022/01/22 06:19:59;;;;;;;;;;;0.50;99.90;;;;;;5011960;28;20381;-69
2022/01/22 06:22:25;;;;;;;;;;;0.50;99.90;;;;;;5013438;28;19913;-68
2022/01/22 06:24:50;;;;;;;;;;;0.50;99.90;;;;;;5028776;28;20287;-70
2022/01/22 06:27:16;;;;;;;;;;;0.50;99.90;;;;;;5031194;28;19913;-73
2022/01/22 06:29:42;;;;;;;;;;;0.50;99.90;;;;;;5033011;28;19917;-69
2022/01/22 06:32:07;;;;;;;;;;;0.40;99.90;;;;;;5033338;28;19921;-68
2022/01/22 06:34:33;;;;;;;;;;;0.50;99.90;;;;;;5032948;28;19917;-70
2022/01/22 06:36:58;;;;;;;;;;;0.50;99.90;;;;;;5048283;28;20345;-70
2022/01/22 06:39:24;;;;;;;;;;;0.40;99.90;;;;;;5033090;28;19913;-68
2022/01/22 06:41:50;;;;;;;;;;;0.40;99.90;;;;;;5047871;28;20028;-68
2022/01/22 06:44:18;;;;;;;;;;;0.30;99.90;;;;;;5032656;28;19963;-69
2022/01/22 06:46:46;;;;;;;;;;;0.30;99.90;;;;;;5032861;28;19913;-69
2022/01/22 06:49:11;;;;;;;;;;;0.30;99.90;;;;;;5033201;28;20149;-68
2022/01/22 06:51:37;;;;;;;;;;;0.30;99.90;;;;;;5035354;28;19920;-70
2022/01/22 06:54:04;;;;;;;;;;;0.20;99.90;;;;;;5036655;28;19917;-68
2022/01/22 06:56:30;;;;;;;;;;;0.20;99.90;;;;;;5036497;28;19920;-69
2022/01/22 06:58:56;;;;;;;;;;;0.20;99.90;;;;;;5036463;28;20334;-69
2022/01/22 07:01:21;;;;;;;;;;;0.20;99.90;;;;;;5036645;28;19984;-69
2022/01/22 07:03:47;;;;;;;;;;;0.20;99.90;;;;;;5035663;28;19948;-69
2022/01/22 07:06:13;;;;;;;;;;;0.20;99.90;;;;;;5036630;28;19920;-68
2022/01/22 07:08:38;;;;;;;;;;;0.30;99.90;;;;;;5036757;28;20004;-69
2022/01/22 07:11:05;;;;;;;;;;;0.30;99.90;;;;;;5035283;28;20052;-69
2022/01/22 07:13:30;;;;;;;;;;;0.30;99.90;;;;;;5034794;28;19917;-70
2022/01/22 07:15:56;;;;;;;;;;;0.40;99.90;;;;;;5034559;28;19922;-69
2022/01/22 07:18:21;;;;;;;;;;;0.30;99.90;;;;;;5036189;28;19920;-68
2022/01/22 07:20:49;;;;;;;;;;;0.40;99.90;;;;;;5034870;28;19921;-68
2022/01/22 07:23:31;;;;;;;;;;;0.50;99.90;;;;;;5036276;28;20288;-68
2022/01/22 07:25:57;;;;;;;;;;;0.40;99.90;;;;;;5034901;28;20316;-70
2022/01/22 07:28:22;;;;;;;;;;;0.40;99.90;;;;;;5036075;28;19914;-69
2022/01/22 07:30:48;;;;;;;;;;;0.40;99.90;;;;;;5036173;28;20035;-68
2022/01/22 07:33:14;;;;;;;;;;;0.40;99.90;;;;;;5036193;28;20356;-68
2022/01/22 07:35:40;;;;;;;;;;;0.40;99.90;;;;;;5034768;28;20029;-69
2022/01/22 07:38:06;;;;;;;;;;;0.50;99.90;;;;;;5034371;28;20012;-69
2022/01/22 07:40:32;;;;;;;;;;;0.40;99.90;;;;;;5035606;28;20720;-68
2022/01/22 07:42:58;;;;;;;;;;;0.40;99.90;;;;;;5035864;28;19913;-68
2022/01/22 07:45:23;;;;;;;;;;;0.40;99.90;;;;;;5035795;28;19959;-68
2022/01/22 07:47:49;;;;;;;;;;;0.50;99.90;;;;;;5035612;28;19946;-68
2022/01/22 07:50:15;;;;;;;;;;;0.50;99.90;;;;;;5035638;28;20024;-70
2022/01/22 07:52:40;;;;;;;;;;;0.50;99.90;;;;;;5035790;28;19924;-68
2022/01/22 07:55:07;;;;;;;;;;;0.50;99.90;;;;;;5035925;28;19914;-69
2022/01/22 07:57:33;;;;;;;;;;;0.50;99.90;;;;;;5035392;28;20372;-69
2022/01/22 07:59:59;;;;;;;;;;;0.50;99.90;;;;;;5035222;28;19992;-69
2022/01/22 08:02:24;;;;;;;;;;;0.50;99.90;;;;;;5035545;28;20400;-68
2022/01/22 08:04:50;;;;;;;;;;;0.50;99.90;;;;;;5034386;28;19917;-69
2022/01/22 08:07:16;;;;;;;;;;;0.60;99.90;;;;;;5035269;28;19928;-69
2022/01/22 08:09:42;;;;;;;;;;;0.60;99.90;;;;;;5035170;28;19924;-69
2022/01/22 08:12:08;;;;;;;;;;;0.60;99.90;;;;;;5035304;28;19917;-69
2022/01/22 08:14:33;;;;;;;;;;;0.60;99.90;;;;;;5035190;28;19919;-69
2022/01/22 08:17:02;;;;;;;;;;;0.70;99.90;;;;;;5034027;28;19979;-68
2022/01/22 08:19:27;;;;;;;;;;;0.70;99.90;;;;;;5035322;28;19913;-68
2022/01/22 08:21:53;;;;;;;;;;;0.70;99.90;;;;;;5035008;28;20028;-69
2022/01/22 08:24:23;;;;;;;;;;;0.80;99.90;;;;;;5033746;28;20003;-69
2022/01/22 08:27:03;;;;;;;;;;;0.80;99.90;;;;;;5035014;28;20482;-70
2022/01/22 08:29:29;;;;;;;;;;;0.80;99.90;;;;;;5033711;28;19960;-68
2022/01/22 08:32:10;;;;;;;;;;;0.80;99.90;;;;;;5031567;28;19948;-68
2022/01/22 08:37:21;;;;;;;;;;;0.90;99.90;;;;;;5031553;28;19928;-69
2022/01/22 08:39:46;;;;;;;;;;;0.90;99.90;;;;;;5029068;28;19913;-70
2022/01/22 08:42:12;;;;;;;;;;;1.00;99.90;;;;;;5033514;28;20310;-71
2022/01/22 08:44:40;;;;;;;;;;;1.00;99.90;;;;;;5032696;28;20008;-70
2022/01/22 08:47:06;;;;;;;;;;;1.00;99.90;;;;;;5031670;28;19920;-68
2022/01/22 08:49:31;;;;;;;;;;;1.00;99.90;;;;;;5032114;28;20390;-68
2022/01/22 08:51:57;;;;;;;;;;;1.00;99.90;;;;;;5032448;28;19955;-68
2022/01/22 08:54:23;;;;;;;;;;;1.00;99.90;;;;;;5032509;28;19917;-67
2022/01/22 08:56:48;;;;;;;;;;;1.20;99.90;;;;;;5032268;28;19924;-72
2022/01/22 08:59:14;;;;;;;;;;;1.00;99.90;;;;;;5032597;28;19948;-68
2022/01/22 09:01:48;;;;;;;;;;;1.00;99.90;;;;;;5030823;28;19924;-68
2022/01/22 09:04:13;;;;;;;;;;;1.10;99.90;;;;;;5031571;28;19943;-70
2022/01/22 09:06:40;;;;;;;;;;;1.10;99.90;;;;;;5033108;28;20357;-74
2022/01/22 09:09:09;;;;;;;;;;;1.10;99.90;;;;;;5032922;28;20495;-74
2022/01/22 09:11:36;;;;;;;;;;;1.20;99.90;;;;;;5032454;28;19913;-74
2022/01/22 09:14:02;;;;;;;;;;;1.20;99.90;;;;;;5032054;28;19913;-72
2022/01/22 09:16:30;;;;;;;;;;;1.20;99.90;;;;;;5031800;28;20312;-69
2022/01/22 09:19:01;;;;;;;;;;;1.10;99.90;;;;;;5031716;28;20380;-68
2022/01/22 09:21:26;;;;;;;;;;;1.10;99.90;;;;;;5032359;28;19956;-72
2022/01/22 09:23:52;;;;;;;;;;;1.10;99.90;;;;;;5033382;28;20458;-71
2022/01/22 09:26:19;;;;;;;;;;;1.20;99.90;;;;;;5033895;28;20003;-72
2022/01/22 09:28:46;;;;;;;;;;;1.10;99.90;;;;;;5031948;28;19971;-70
2022/01/22 09:31:12;;;;;;;;;;;1.20;99.90;;;;;;5031359;28;20342;-74
2022/01/22 09:33:39;;;;;;;;;;;1.30;99.90;;;;;;5031700;28;19912;-69
2022/01/22 09:36:05;;;;;;;;;;;1.30;99.90;;;;;;5031275;28;19924;-74
2022/01/22 09:38:30;;;;;;;;;;;1.30;99.90;;;;;;5030855;28;20000;-70
2022/01/22 09:40:56;;;;;;;;;;;1.20;99.90;;;;;;5031982;28;19920;-69
2022/01/22 09:43:23;;;;;;;;;;;1.20;99.90;;;;;;5033109;28;20349;-75
2022/01/22 09:45:49;;;;;;;;;;;1.30;99.90;;;;;;5029265;28;19913;-73
2022/01/22 09:48:14;;;;;;;;;;;1.30;99.90;;;;;;5031772;28;20403;-72
2022/01/22 09:50:40;;;;;;;;;;;1.40;99.90;;;;;;5031162;28;19917;-69
2022/01/22 09:53:06;;;;;;;;;;;1.50;99.90;;;;;;5031258;28;19917;-73
2022/01/22 09:55:32;;;;;;;;;;;1.50;99.90;;;;;;5030223;28;20028;-70
2022/01/22 09:57:58;;;;;;;;;;;1.50;99.90;;;;;;5031036;28;19968;-72
2022/01/22 10:00:25;;;;;;;;;;;1.60;99.90;;;;;;5025619;28;19986;-69
2022/01/22 10:02:52;;;;;;;;;;;1.60;99.90;;;;;;5028058;28;20291;-68
2022/01/22 10:05:30;;;;;;;;;;;1.50;99.90;;;;;;5031200;28;20004;-73
2022/01/22 10:08:14;;;;;;;;;;;1.60;99.90;;;;;;5029648;28;19968;-70
2022/01/22 10:10:40;;;;;;;;;;;1.60;99.90;;;;;;5029702;28;19969;-70
2022/01/22 10:13:06;;;;;;;;;;;1.70;99.90;;;;;;5029374;28;20010;-69
2022/01/22 10:15:35;;;;;;;;;;;1.90;99.90;;;;;;5027251;28;19921;-75
2022/01/22 10:18:00;;;;;;;;;;;1.80;99.90;;;;;;5030283;28;20276;-74
2022/01/22 10:20:27;;;;;;;;;;;1.90;99.90;;;;;;5029065;28;19921;-70
2022/01/22 10:23:00;;;;;;;;;;;2.10;99.90;;;;;;5029571;28;20408;-73
2022/01/22 10:25:30;;;;;;;;;;;2.20;99.90;;;;;;5033442;28;19968;-74
2022/01/22 10:27:57;;;;;;;;;;;2.30;99.90;;;;;;5032385;28;20452;-76
2022/01/22 10:30:25;;;;;;;;;;;2.40;99.90;;;;;;5033526;28;19971;-76
2022/01/22 10:33:04;;;;;;;;;;;2.70;99.90;;;;;;5035327;28;20032;-77
2022/01/22 10:35:32;;;;;;;;;;;2.90;99.90;;;;;;5035706;28;19913;-75
2022/01/22 10:38:00;;;;;;;;;;;2.80;99.90;;;;;;5036049;28;19917;-69
2022/01/22 10:40:29;;;;;;;;;;;3.00;99.90;;;;;;5035234;28;19944;-73
2022/01/22 10:43:19;;;;;;;;;;;3.30;99.90;;;;;;5034284;28;19919;-74
2022/01/22 10:45:45;;;;;;;;;;;;;;;;;;5034014;28;19913;-74
2022/01/22 10:48:18;;;;;;;;;;;3.60;99.90;;;;;;5036401;28;19920;-74
2022/01/22 10:50:44;;;;;;;;;;;3.50;99.90;;;;;;5033550;28;20003;-74
2022/01/22 10:53:09;;;;;;;;;;;3.30;99.90;;;;;;5034736;28;20344;-74
2022/01/22 10:55:54;;;;;;;;;;;3.40;99.90;;;;;;5032954;28;19920;-72
2022/01/22 10:58:19;;;;;;;;;;;3.20;99.90;;;;;;5033842;28;20323;-70
2022/01/22 11:00:57;;;;;;;;;;;3.40;99.90;;;;;;5033513;28;19917;-74
2022/01/22 11:03:23;;;;;;;;;;;3.00;99.90;;;;;;5034563;28;19944;-75
2022/01/22 11:05:48;;;;;;;;;;;3.20;99.90;;;;;;5032868;28;20319;-74
2022/01/22 11:08:14;;;;;;;;;;;3.40;99.90;;;;;;5034852;28;19913;-75
2022/01/22 11:10:43;;;;;;;;;;;3.40;99.90;;;;;;5033411;28;19928;-71
2022/01/22 11:13:09;;;;;;;;;;;3.20;99.90;;;;;;5033873;28;20000;-73
2022/01/22 11:15:35;;;;;;;;;;;3.40;99.90;;;;;;5034278;28;20043;-75
2022/01/22 11:18:02;;;;;;;;;;;3.20;99.90;;;;;;5035968;28;19913;-75
2022/01/22 11:20:30;;;;;;;;;;;3.10;99.90;;;;;;5034436;28;19917;-75
2022/01/22 11:22:57;;;;;;;;;;;3.10;99.90;;;;;;5032615;28;19923;-73
2022/01/22 11:25:24;;;;;;;;;;;3.00;99.90;;;;;;5033050;28;19913;-75
2022/01/22 11:27:50;;;;;;;;;;;3.10;99.90;;;;;;5032067;28;19971;-76
2022/01/22 11:30:17;;;;;;;;;;;3.20;99.90;;;;;;5031712;28;19921;-75
2022/01/22 11:32:46;;;;;;;;;;;3.10;99.90;;;;;;5034197;28;20261;-74
2022/01/22 11:35:13;;;;;;;;;;;3.10;99.90;;;;;;5033325;28;20266;-72
2022/01/22 11:37:43;;;;;;;;;;;3.30;99.90;;;;;;5031800;28;20308;-75
2022/01/22 11:40:13;;;;;;;;;;;3.40;99.90;;;;;;5032777;28;19920;-71
2022/01/22 11:43:04;;;;;;;;;;;3.20;99.90;;;;;;5030847;28;20079;-75
2022/01/22 11:45:33;;;;;;;;;;;3.20;99.90;;;;;;5033412;28;20365;-74
2022/01/22 11:48:08;;;;;;;;;;;3.50;99.90;;;;;;5036055;28;19913;-74
2022/01/22 11:50:34;;;;;;;;;;;3.50;99.90;;;;;;5033174;28;19959;-72
2022/01/22 11:53:20;;;;;;;;;;;3.70;99.90;;;;;;5033685;28;19920;-74
2022/01/22 11:56:05;;;;;;;;;;;3.70;99.90;;;;;;5019576;28;19921;-74
2022/01/22 11:58:31;;;;;;;;;;;3.50;99.90;;;;;;5031244;28;19960;-72
2022/01/22 12:00:56;;;;;;;;;;;3.60;99.90;;;;;;5030861;28;20321;-71
2022/01/22 12:03:22;;;;;;;;;;;3.50;99.90;;;;;;5031821;28;20368;-74
2022/01/22 12:05:50;;;;;;;;;;;3.40;99.90;;;;;;5030368;28;19917;-74
2022/01/22 12:08:17;;;;;;;;;;;3.70;99.90;;;;;;5030045;28;20388;-74
2022/01/22 12:14:26;;;;;;;;;;;3.70;99.90;;;;;;5032110;28;19914;-75
2022/01/22 12:16:16;;;;;;;;;;;3.90;99.90;;;;;;5032775;28;20481;-74
2022/01/22 12:18:55;;;;;;;;;;;3.90;99.90;;;;;;5032040;28;19959;-75
2022/01/22 12:21:32;;;;;;;;;;;4.30;99.90;;;;;;5032345;28;19929;-75
2022/01/22 12:23:59;;;;;;;;;;;4.30;99.90;;;;;;5031429;28;19943;-75
2022/01/22 12:26:38;;;;;;;;;;;4.20;99.90;;;;;;5033623;28;20430;-75
2022/01/22 12:29:22;;;;;;;;;;;4.00;99.90;;;;;;5032479;28;19921;-73
2022/01/22 12:32:07;;;;;;;;;;;4.00;99.90;;;;;;5032158;28;19928;-75
2022/01/22 12:34:51;;;;;;;;;;;4.40;99.90;;;;;;5031865;28;20010;-75
2022/01/22 12:37:18;;;;;;;;;;;4.20;99.90;;;;;;5032551;28;19917;-76
2022/01/22 12:39:49;;;;;;;;;;;4.30;99.90;;;;;;5034800;28;19920;-75
2022/01/22 12:42:24;;;;;;;;;;;3.90;99.90;;;;;;5033547;28;19986;-74
2022/01/22 12:44:56;;;;;;;;;;;3.80;99.90;;;;;;5032085;28;20370;-75
2022/01/22 12:47:22;;;;;;;;;;;3.80;99.90;;;;;;5028637;28;20354;-73
2022/01/22 12:50:01;;;;;;;;;;;3.60;99.90;;;;;;5031654;28;19917;-73
2022/01/22 12:52:27;;;;;;;;;;;3.60;99.90;;;;;;5029467;28;19913;-74
2022/01/22 12:54:57;;;;;;;;;;;3.70;99.90;;;;;;5031391;28;19928;-73
2022/01/22 12:57:25;;;;;;;;;;;3.70;99.90;;;;;;5031363;28;20071;-76
2022/01/22 13:00:01;;;;;;;;;;;3.90;99.90;;;;;;5031445;28;20235;-75
2022/01/22 13:02:40;;;;;;;;;;;3.70;99.90;;;;;;5032936;28;19921;-72
2022/01/22 13:05:07;;;;;;;;;;;3.90;99.90;;;;;;5032057;28;20487;-71
2022/01/22 13:07:54;;;;;;;;;;;3.60;99.90;;;;;;5034528;28;20004;-73
2022/01/22 13:10:23;;;;;;;;;;;3.70;99.90;;;;;;5028325;28;20616;-74
2022/01/22 13:12:49;;;;;;;;;;;3.40;99.90;;;;;;5027821;28;19917;-74
2022/01/22 13:15:15;;;;;;;;;;;3.60;99.90;;;;;;5029772;28;20471;-69
2022/01/22 13:17:42;;;;;;;;;;;3.70;99.90;;;;;;5031253;28;19963;-70
2022/01/22 13:20:08;;;;;;;;;;;3.90;99.90;;;;;;5030083;28;19943;-73
2022/01/22 13:22:35;;;;;;;;;;;3.90;99.90;;;;;;5030910;28;19925;-74
2022/01/22 13:25:11;;;;;;;;;;;3.90;99.90;;;;;;5031770;28;19924;-70
2022/01/22 13:27:37;;;;;;;;;;;3.90;99.90;;;;;;5030566;28;19913;-74
2022/01/22 13:30:08;;;;;;;;;;;3.90;99.90;;;;;;5030973;28;20048;-70
2022/01/22 13:32:54;;;;;;;;;;;4.00;99.90;;;;;;5030536;28;19960;-72
2022/01/22 13:35:32;;;;;;;;;;;4.00;99.90;;;;;;5030848;28;20738;-75
2022/01/22 13:49:00;;;;;;;;;;;4.20;99.90;;;;;;5031162;28;19920;-71
2022/01/22 13:51:27;;;;;;;;;;;4.20;99.90;;;;;;5021439;28;19914;-74
2022/01/22 13:53:53;;;;;;;;;;;4.00;99.90;;;;;;5011277;28;20332;-72
2022/01/22 13:56:21;;;;;;;;;;;4.20;99.90;;;;;;5011612;28;19980;-75
2022/01/22 13:58:47;;;;;;;;;;;4.00;99.90;;;;;;5020176;28;20420;-74
2022/01/22 14:01:27;;;;;;;;;;;4.00;99.90;;;;;;5030664;28;20055;-74
2022/01/22 14:04:09;;;;;;;;;;;4.40;99.90;;;;;;5030584;28;19975;-73
2022/01/22 14:06:35;;;;;;;;;;;4.20;99.90;;;;;;5028422;28;20395;-74
2022/01/22 14:09:14;;;;;;;;;;;4.20;99.90;;;;;;5031156;28;19917;-71
2022/01/22 14:11:58;;;;;;;;;;;4.20;99.90;;;;;;5029238;28;19913;-74
2022/01/22 14:14:25;;;;;;;;;;;4.40;99.90;;;;;;5030140;28;19999;-76
2022/01/22 14:17:06;;;;;;;;;;;4.60;99.90;;;;;;5029381;28;20461;-76
2022/01/22 14:19:31;;;;;;;;;;;4.90;99.90;;;;;;5030578;28;19917;-70
2022/01/22 14:21:57;;;;;;;;;;;5.00;99.90;;;;;;5029598;28;19941;-70
2022/01/22 14:24:28;;;;;;;;;;;4.80;99.90;;;;;;5030056;28;20008;-73
2022/01/22 14:26:53;;;;;;;;;;;4.50;99.90;;;;;;5029454;28;19920;-75
2022/01/22 14:29:20;;;;;;;;;;;4.60;99.90;;;;;;5029092;28;20383;-72
2022/01/22 14:31:49;;;;;;;;;;;4.60;99.90;;;;;;5032057;28;19920;-71
2022/01/22 14:34:34;;;;;;;;;;;4.50;99.90;;;;;;5031001;28;19917;-73
2022/01/22 14:37:01;;;;;;;;;;;4.50;99.90;;;;;;5031400;28;19914;-74
2022/01/22 14:43:49;;;;;;;;;;;4.60;99.90;;;;;;5030211;28;19913;-74
2022/01/22 14:45:07;;;;;;;;;;;4.70;99.90;;;;;;5020870;28;19928;-71
2022/01/22 14:47:33;;;;;;;;;;;4.90;99.90;;;;;;5029499;28;20431;-69
2022/01/22 14:50:02;;;;;;;;;;;4.70;99.90;;;;;;5030700;28;19914;-70
2022/01/22 14:52:28;;;;;;;;;;;4.70;99.90;;;;;;5031204;28;20674;-71
2022/01/22 14:54:55;;;;;;;;;;;4.50;99.90;;;;;;5029509;28;19917;-70
2022/01/22 14:57:25;;;;;;;;;;;4.50;99.90;;;;;;5030807;28;20466;-74
2022/01/22 14:59:50;;;;;;;;;;;4.30;99.90;;;;;;5029714;28;19917;-71
2022/01/22 15:02:16;;;;;;;;;;;4.20;99.90;;;;;;5029816;28;20343;-70
2022/01/22 15:04:42;;;;;;;;;;;4.40;99.90;;;;;;5030737;28;19913;-69
2022/01/22 15:07:10;;;;;;;;;;;4.20;99.90;;;;;;5030953;28;20365;-74
2022/01/22 15:09:36;;;;;;;;;;;3.90;99.90;;;;;;5029600;28;19958;-76
2022/01/22 15:12:07;;;;;;;;;;;4.00;99.90;;;;;;5034802;28;19924;-71
2022/01/22 15:14:33;;;;;;;;;;;4.00;99.90;;;;;;5035630;28;20011;-73
2022/01/22 15:19:35;;;;;;;;;;;3.80;99.90;;;;;;5035040;28;19913;-74
2022/01/22 15:22:00;;;;;;;;;;;3.70;99.90;;;;;;5035303;28;20008;-70
2022/01/22 15:24:26;;;;;;;;;;;3.80;99.90;;;;;;5035773;28;20064;-70
2022/01/22 15:26:53;;;;;;;;;;;3.70;99.90;;;;;;5033088;28;19917;-75
2022/01/22 15:29:24;;;;;;;;;;;3.60;99.90;;;;;;5033395;28;19913;-75
2022/01/22 15:32:06;;;;;;;;;;;3.70;99.90;;;;;;5032516;28;19917;-70
2022/01/22 15:36:59;;;;;;;;;;;3.80;99.90;;;;;;5034364;28;19967;-70
2022/01/22 15:39:25;;;;;;;;;;;3.90;99.90;;;;;;5035429;28;19919;-70
2022/01/22 15:41:51;;;;;;;;;;;4.00;99.90;;;;;;5034008;28;19987;-72
2022/01/22 15:44:17;;;;;;;;;;;3.80;99.90;;;;;;5031790;28;19913;-71
2022/01/22 15:46:44;;;;;;;;;;;3.80;99.90;;;;;;5033868;28;19913;-70
2022/01/22 15:49:14;;;;;;;;;;;3.70;99.90;;;;;;5033884;28;19940;-72
2022/01/22 15:51:41;;;;;;;;;;;3.80;99.90;;;;;;5033706;28;19920;-70
2022/01/22 15:54:07;;;;;;;;;;;3.60;99.90;;;;;;5030996;28;19917;-73
2022/01/22 15:56:32;;;;;;;;;;;3.50;99.90;;;;;;5032647;28;19913;-73
2022/01/22 15:58:58;;;;;;;;;;;3.50;99.90;;;;;;5034474;28;19921;-69
2022/01/22 16:01:23;;;;;;;;;;;3.50;99.90;;;;;;5032784;28;20039;-69
2022/01/22 16:03:57;;;;;;;;;;;3.50;99.90;;;;;;5034894;28;19913;-71
2022/01/22 16:06:33;;;;;;;;;;;3.30;99.90;;;;;;5032907;28;19921;-69
2022/01/22 16:08:59;;;;;;;;;;;3.00;99.90;;;;;;5033111;28;19920;-76
2022/01/22 16:11:24;;;;;;;;;;;3.00;99.90;;;;;;5035862;28;19913;-75
2022/01/22 16:13:50;;;;;;;;;;;2.90;99.90;;;;;;5033778;28;20423;-75
2022/01/22 16:16:15;;;;;;;;;;;2.80;99.90;;;;;;5033368;28;19921;-70
2022/01/22 16:18:41;;;;;;;;;;;2.80;99.90;;;;;;5033593;28;19953;-77
2022/01/22 16:21:07;;;;;;;;;;;2.80;99.90;;;;;;5033214;28;19943;-72
2022/01/22 16:23:32;;;;;;;;;;;2.70;99.90;;;;;;5033859;28;19917;-69
2022/01/22 16:26:01;;;;;;;;;;;2.70;99.90;;;;;;5034794;28;19918;-69